sensor_id;sensor_type;location;lat;lon;timestamp;temperature;humidity
18173;DHT22;9211;48.818;9.312;2022-12-18T00:00:48;-8.50;99.90
18173;DHT22;9211;48.818;9.312;2022-12-18T00:03:15;-8.60;99.90
18173;DHT22;9211;48.818;9.312;2022-12-18T00:05:51;-8.60;99.90
18173;DHT22;9211;48.818;9.312;2022-12-18T00:08:18;-8.70;99.90
18173;DHT22;9211;48.818;9.312;2022-12-18T00:10:46;-8.70;99.90
18173;DHT22;9211;48.818;9.312;2022-12-18T00:13:13;-8.60;99.90
18173;DHT22;9211;48.818;9.312;2022-12-18T00:15:40;-8.70;99.90
18173;DHT22;9211;48.818;9.312;2022-12-18T00:18:07;-8.70;99.90
18173;DHT22;9211;48.818;9.312;2022-12-18T00:20:36;-8.60;99.90
18173;DHT22;9211;48.818;9.312;2022-12-18T00:23:05;-8.60;99.90
18173;DHT22;9211;48.818;9.312;2022-12-18T00:25:33;-8.60;99.90
18173;DHT22;9211;48.818;9.312;2022-12-18T00:28:01;-8.60;99.90
18173;DHT22;9211;48.818;9.312;2022-12-18T00:30:28;-8.70;99.90
18173;DHT22;9211;48.818;9.312;2022-12-18T00:32:55;-8.80;99.90
18173;DHT22;9211;48.818;9.312;2022-12-18T00:35:25;-8.80;99.90
18173;DHT22;9211;48.818;9.312;2022-12-18T00:37:52;-9.00;99.90
18173;DHT22;9211;48.818;9.312;2022-12-18T00:40:20;-9.00;99.90
18173;DHT22;9211;48.818;9.312;2022-12-18T00:42:47;-9.00;99.90
18173;DHT22;9211;48.818;9.312;2022-12-18T00:45:27;-9.00;99.90
18173;DHT22;9211;48.818;9.312;2022-12-18T00:47:55;-9.00;99.90
18173;DHT22;9211;48.818;9.312;2022-12-18T00:50:25;-9.00;99.90
18173;DHT22;9211;48.818;9.312;2022-12-18T00:52:52;-8.90;99.90
18173;DHT22;9211;48.818;9.312;2022-12-18T00:55:20;-8.90;99.90
18173;DHT22;9211;48.818;9.312;2022-12-18T00:57:47;-8.90;99.90
18173;DHT22;9211;48.818;9.312;2022-12-18T01:00:15;-8.90;99.90
18173;DHT22;9211;48.818;9.312;2022-12-18T01:02:42;-8.90;99.90
18173;DHT22;9211;48.818;9.312;2022-12-18T01:05:10;-9.00;99.90
18173;DHT22;9211;48.818;9.312;2022-12-18T01:07:38;-9.00;99.90
18173;DHT22;9211;48.818;9.312;2022-12-18T01:10:06;-9.00;99.90
18173;DHT22;9211;48.818;9.312;2022-12-18T01:12:36;-9.00;99.90
18173;DHT22;9211;48.818;9.312;2022-12-18T01:15:04;-9.10;99.90
18173;DHT22;9211;48.818;9.312;2022-12-18T01:18:13;-9.20;99.90
18173;DHT22;9211;48.818;9.312;2022-12-18T01:20:39;-9.20;99.90
18173;DHT22;9211;48.818;9.312;2022-12-18T01:23:06;-9.20;99.90
18173;DHT22;9211;48.818;9.312;2022-12-18T01:25:33;-9.30;99.90
18173;DHT22;9211;48.818;9.312;2022-12-18T01:28:03;-9.30;99.90
18173;DHT22;9211;48.818;9.312;2022-12-18T01:30:31;-9.30;99.90
18173;DHT22;9211;48.818;9.312;2022-12-18T01:32:58;-9.30;99.90
18173;DHT22;9211;48.818;9.312;2022-12-18T01:35:25;-9.30;99.90
18173;DHT22;9211;48.818;9.312;2022-12-18T01:37:54;-9.30;99.90
18173;DHT22;9211;48.818;9.312;2022-12-18T01:40:22;-9.30;99.90
18173;DHT22;9211;48.818;9.312;2022-12-18T01:42:51;-9.30;99.90
18173;DHT22;9211;48.818;9.312;2022-12-18T01:45:27;-9.30;99.90
18173;DHT22;9211;48.818;9.312;2022-12-18T01:47:57;-9.40;99.90
18173;DHT22;9211;48.818;9.312;2022-12-18T01:50:28;-9.50;99.90
18173;DHT22;9211;48.818;9.312;2022-12-18T01:53:00;-9.40;99.90
18173;DHT22;9211;48.818;9.312;2022-12-18T01:55:32;-9.30;99.90
18173;DHT22;9211;48.818;9.312;2022-12-18T01:58:00;-9.30;99.90
18173;DHT22;9211;48.818;9.312;2022-12-18T02:00:29;-9.30;99.90
18173;DHT22;9211;48.818;9.312;2022-12-18T02:02:57;-9.40;99.90
18173;DHT22;9211;48.818;9.312;2022-12-18T02:05:32;-9.40;99.90
18173;DHT22;9211;48.818;9.312;2022-12-18T02:08:09;-9.40;99.90
18173;DHT22;9211;48.818;9.312;2022-12-18T02:10:44;-9.30;99.90
18173;DHT22;9211;48.818;9.312;2022-12-18T02:13:16;-9.40;99.90
18173;DHT22;9211;48.818;9.312;2022-12-18T02:15:53;-9.40;99.90
18173;DHT22;9211;48.818;9.312;2022-12-18T02:18:25;-9.50;99.90
18173;DHT22;9211;48.818;9.312;2022-12-18T02:20:59;-9.40;99.90
18173;DHT22;9211;48.818;9.312;2022-12-18T02:23:41;-9.40;99.90
18173;DHT22;9211;48.818;9.312;2022-12-18T02:26:21;-9.50;99.90
18173;DHT22;9211;48.818;9.312;2022-12-18T02:28:54;-9.50;99.90
18173;DHT22;9211;48.818;9.312;2022-12-18T02:31:27;-9.50;99.90
18173;DHT22;9211;48.818;9.312;2022-12-18T02:34:01;-9.40;99.90
18173;DHT22;9211;48.818;9.312;2022-12-18T02:36:33;-9.40;99.90
18173;DHT22;9211;48.818;9.312;2022-12-18T02:39:02;-9.50;99.90
18173;DHT22;9211;48.818;9.312;2022-12-18T02:41:32;-9.40;99.90
18173;DHT22;9211;48.818;9.312;2022-12-18T02:44:07;-9.40;99.90
18173;DHT22;9211;48.818;9.312;2022-12-18T02:46:37;-9.50;99.90
18173;DHT22;9211;48.818;9.312;2022-12-18T02:49:17;-9.30;99.90
18173;DHT22;9211;48.818;9.312;2022-12-18T02:51:52;-9.30;99.90
18173;DHT22;9211;48.818;9.312;2022-12-18T02:54:37;-9.30;99.90
18173;DHT22;9211;48.818;9.312;2022-12-18T02:57:15;-9.30;99.90
18173;DHT22;9211;48.818;9.312;2022-12-18T02:59:51;-9.20;99.90
18173;DHT22;9211;48.818;9.312;2022-12-18T03:02:24;-9.10;99.90
18173;DHT22;9211;48.818;9.312;2022-12-18T03:04:57;-9.20;99.90
18173;DHT22;9211;48.818;9.312;2022-12-18T03:07:35;-9.30;99.90
18173;DHT22;9211;48.818;9.312;2022-12-18T03:10:09;-9.30;99.90
18173;DHT22;9211;48.818;9.312;2022-12-18T03:12:43;-9.20;99.90
18173;DHT22;9211;48.818;9.312;2022-12-18T03:15:16;-9.30;99.90
18173;DHT22;9211;48.818;9.312;2022-12-18T03:17:52;-9.30;99.90
18173;DHT22;9211;48.818;9.312;2022-12-18T03:20:21;-9.30;99.90
18173;DHT22;9211;48.818;9.312;2022-12-18T03:22:52;-9.30;99.90
18173;DHT22;9211;48.818;9.312;2022-12-18T03:25:20;-9.40;99.90
18173;DHT22;9211;48.818;9.312;2022-12-18T03:27:56;-9.40;99.90
18173;DHT22;9211;48.818;9.312;2022-12-18T03:30:26;-9.40;99.90
18173;DHT22;9211;48.818;9.312;2022-12-18T03:33:00;-9.40;99.90
18173;DHT22;9211;48.818;9.312;2022-12-18T03:35:33;-9.40;99.90
18173;DHT22;9211;48.818;9.312;2022-12-18T03:38:01;-9.40;99.90
18173;DHT22;9211;48.818;9.312;2022-12-18T03:40:33;-9.40;99.90
18173;DHT22;9211;48.818;9.312;2022-12-18T03:43:08;-9.40;99.90
18173;DHT22;9211;48.818;9.312;2022-12-18T03:45:43;-9.40;99.90
18173;DHT22;9211;48.818;9.312;2022-12-18T03:48:17;-9.40;99.90
18173;DHT22;9211;48.818;9.312;2022-12-18T03:50:52;-9.40;99.90
18173;DHT22;9211;48.818;9.312;2022-12-18T03:53:29;-9.40;99.90
18173;DHT22;9211;48.818;9.312;2022-12-18T03:56:00;-9.30;99.90
18173;DHT22;9211;48.818;9.312;2022-12-18T03:58:36;-9.30;99.90
18173;DHT22;9211;48.818;9.312;2022-12-18T04:01:16;-9.40;99.90
18173;DHT22;9211;48.818;9.312;2022-12-18T04:03:45;-9.50;99.90
18173;DHT22;9211;48.818;9.312;2022-12-18T04:06:13;-9.50;99.90
18173;DHT22;9211;48.818;9.312;2022-12-18T04:08:43;-9.60;99.90
18173;DHT22;9211;48.818;9.312;2022-12-18T04:11:13;-9.70;99.90
18173;DHT22;9211;48.818;9.312;2022-12-18T04:13:44;-9.60;99.90
18173;DHT22;9211;48.818;9.312;2022-12-18T04:16:18;-9.70;99.90
18173;DHT22;9211;48.818;9.312;2022-12-18T04:18:48;-9.70;99.90
18173;DHT22;9211;48.818;9.312;2022-12-18T04:21:15;-9.70;99.90
18173;DHT22;9211;48.818;9.312;2022-12-18T04:23:43;-9.50;99.90
18173;DHT22;9211;48.818;9.312;2022-12-18T04:26:11;-9.60;99.90
18173;DHT22;9211;48.818;9.312;2022-12-18T04:28:50;-9.70;99.90
18173;DHT22;9211;48.818;9.312;2022-12-18T04:31:17;-9.60;99.90
18173;DHT22;9211;48.818;9.312;2022-12-18T04:33:44;-9.60;99.90
18173;DHT22;9211;48.818;9.312;2022-12-18T04:36:12;-9.60;99.90
18173;DHT22;9211;48.818;9.312;2022-12-18T04:38:40;-9.60;99.90
18173;DHT22;9211;48.818;9.312;2022-12-18T04:41:11;-9.60;99.90
18173;DHT22;9211;48.818;9.312;2022-12-18T04:43:40;-9.60;99.90
18173;DHT22;9211;48.818;9.312;2022-12-18T04:46:09;-9.70;99.90
18173;DHT22;9211;48.818;9.312;2022-12-18T04:48:36;-9.70;99.90
18173;DHT22;9211;48.818;9.312;2022-12-18T04:51:04;-9.70;99.90
18173;DHT22;9211;48.818;9.312;2022-12-18T04:53:31;-9.90;99.90
18173;DHT22;9211;48.818;9.312;2022-12-18T04:56:06;-9.80;99.90
18173;DHT22;9211;48.818;9.312;2022-12-18T04:58:34;-9.90;99.90
18173;DHT22;9211;48.818;9.312;2022-12-18T05:01:01;-9.80;99.90
18173;DHT22;9211;48.818;9.312;2022-12-18T05:03:30;-9.80;99.90
18173;DHT22;9211;48.818;9.312;2022-12-18T05:05:57;-9.80;99.90
18173;DHT22;9211;48.818;9.312;2022-12-18T05:08:24;-9.80;99.90
18173;DHT22;9211;48.818;9.312;2022-12-18T05:10:58;-9.80;99.90
18173;DHT22;9211;48.818;9.312;2022-12-18T05:13:25;-9.90;99.90
18173;DHT22;9211;48.818;9.312;2022-12-18T05:15:53;-9.90;99.90
18173;DHT22;9211;48.818;9.312;2022-12-18T05:18:20;-9.90;99.90
18173;DHT22;9211;48.818;9.312;2022-12-18T05:20:49;-9.70;99.90
18173;DHT22;9211;48.818;9.312;2022-12-18T05:23:16;-9.70;99.90
18173;DHT22;9211;48.818;9.312;2022-12-18T05:25:47;-9.70;99.90
18173;DHT22;9211;48.818;9.312;2022-12-18T05:28:14;-9.60;99.90
18173;DHT22;9211;48.818;9.312;2022-12-18T05:30:41;-9.60;99.90
18173;DHT22;9211;48.818;9.312;2022-12-18T05:33:09;-9.60;99.90
18173;DHT22;9211;48.818;9.312;2022-12-18T05:35:36;-9.60;99.90
18173;DHT22;9211;48.818;9.312;2022-12-18T05:38:04;-9.60;99.90
18173;DHT22;9211;48.818;9.312;2022-12-18T05:40:31;-9.60;99.90
18173;DHT22;9211;48.818;9.312;2022-12-18T05:42:58;-9.60;99.90
18173;DHT22;9211;48.818;9.312;2022-12-18T05:45:25;-9.60;99.90
18173;DHT22;9211;48.818;9.312;2022-12-18T05:47:52;-9.60;99.90
18173;DHT22;9211;48.818;9.312;2022-12-18T05:50:19;-9.70;99.90
18173;DHT22;9211;48.818;9.312;2022-12-18T05:52:46;-9.70;99.90
18173;DHT22;9211;48.818;9.312;2022-12-18T05:55:15;-9.70;99.90
18173;DHT22;9211;48.818;9.312;2022-12-18T05:57:42;-9.80;99.90
18173;DHT22;9211;48.818;9.312;2022-12-18T06:00:10;-9.80;99.90
18173;DHT22;9211;48.818;9.312;2022-12-18T06:02:40;-9.80;99.90
18173;DHT22;9211;48.818;9.312;2022-12-18T06:05:07;-9.90;99.90
18173;DHT22;9211;48.818;9.312;2022-12-18T06:07:34;-10.00;99.90
18173;DHT22;9211;48.818;9.312;2022-12-18T06:10:01;-10.00;99.90
18173;DHT22;9211;48.818;9.312;2022-12-18T06:12:29;-9.90;99.90
18173;DHT22;9211;48.818;9.312;2022-12-18T06:14:56;-9.90;99.90
18173;DHT22;9211;48.818;9.312;2022-12-18T06:17:27;-10.00;99.90
18173;DHT22;9211;48.818;9.312;2022-12-18T06:19:54;-9.90;99.90
18173;DHT22;9211;48.818;9.312;2022-12-18T06:22:21;-9.90;99.90
18173;DHT22;9211;48.818;9.312;2022-12-18T06:24:49;-9.90;99.90
18173;DHT22;9211;48.818;9.312;2022-12-18T06:27:16;-9.80;99.90
18173;DHT22;9211;48.818;9.312;2022-12-18T06:29:44;-9.90;99.90
18173;DHT22;9211;48.818;9.312;2022-12-18T06:32:11;-9.90;99.90
18173;DHT22;9211;48.818;9.312;2022-12-18T06:34:38;-10.00;99.90
18173;DHT22;9211;48.818;9.312;2022-12-18T06:37:05;-9.90;99.90
18173;DHT22;9211;48.818;9.312;2022-12-18T06:39:32;-10.00;99.90
18173;DHT22;9211;48.818;9.312;2022-12-18T06:41:59;-10.00;99.90
18173;DHT22;9211;48.818;9.312;2022-12-18T06:44:26;-10.00;99.90
18173;DHT22;9211;48.818;9.312;2022-12-18T06:46:55;-9.90;99.90
18173;DHT22;9211;48.818;9.312;2022-12-18T06:49:22;-10.00;99.90
18173;DHT22;9211;48.818;9.312;2022-12-18T06:51:49;-10.00;99.90
18173;DHT22;9211;48.818;9.312;2022-12-18T06:54:15;-10.00;99.90
18173;DHT22;9211;48.818;9.312;2022-12-18T06:56:45;-10.00;99.90
18173;DHT22;9211;48.818;9.312;2022-12-18T06:59:12;-10.10;99.90
18173;DHT22;9211;48.818;9.312;2022-12-18T07:01:40;-10.10;99.90
18173;DHT22;9211;48.818;9.312;2022-12-18T07:04:08;-10.10;99.90
18173;DHT22;9211;48.818;9.312;2022-12-18T07:06:35;-10.20;99.90
18173;DHT22;9211;48.818;9.312;2022-12-18T07:09:02;-10.20;99.90
18173;DHT22;9211;48.818;9.312;2022-12-18T07:11:29;-10.10;99.90
18173;DHT22;9211;48.818;9.312;2022-12-18T07:13:58;-10.10;99.90
18173;DHT22;9211;48.818;9.312;2022-12-18T07:16:25;-10.00;99.90
18173;DHT22;9211;48.818;9.312;2022-12-18T07:18:54;-10.00;99.90
18173;DHT22;9211;48.818;9.312;2022-12-18T07:21:24;-10.00;99.90
18173;DHT22;9211;48.818;9.312;2022-12-18T07:23:51;-10.00;99.90
18173;DHT22;9211;48.818;9.312;2022-12-18T07:26:20;-9.80;99.90
18173;DHT22;9211;48.818;9.312;2022-12-18T07:28:47;-10.10;99.90
18173;DHT22;9211;48.818;9.312;2022-12-18T07:31:16;-10.10;99.90
18173;DHT22;9211;48.818;9.312;2022-12-18T07:33:44;-10.10;99.90
18173;DHT22;9211;48.818;9.312;2022-12-18T07:36:11;-10.20;99.90
18173;DHT22;9211;48.818;9.312;2022-12-18T07:38:40;-10.10;99.90
18173;DHT22;9211;48.818;9.312;2022-12-18T07:41:09;-10.10;99.90
18173;DHT22;9211;48.818;9.312;2022-12-18T07:43:37;-10.10;99.90
18173;DHT22;9211;48.818;9.312;2022-12-18T07:46:04;-10.00;99.90
18173;DHT22;9211;48.818;9.312;2022-12-18T07:48:31;-10.00;99.90
18173;DHT22;9211;48.818;9.312;2022-12-18T07:50:58;-10.00;99.90
18173;DHT22;9211;48.818;9.312;2022-12-18T07:53:25;-10.00;99.90
18173;DHT22;9211;48.818;9.312;2022-12-18T07:55:56;-10.00;99.90
18173;DHT22;9211;48.818;9.312;2022-12-18T07:58:23;-9.90;99.90
18173;DHT22;9211;48.818;9.312;2022-12-18T08:00:51;-9.80;99.90
18173;DHT22;9211;48.818;9.312;2022-12-18T08:03:19;-9.80;99.90
18173;DHT22;9211;48.818;9.312;2022-12-18T08:05:49;-9.60;99.90
18173;DHT22;9211;48.818;9.312;2022-12-18T08:08:16;-9.60;99.90
18173;DHT22;9211;48.818;9.312;2022-12-18T08:10:43;-9.50;99.90
18173;DHT22;9211;48.818;9.312;2022-12-18T08:13:11;-9.50;99.90
18173;DHT22;9211;48.818;9.312;2022-12-18T08:15:38;-9.50;99.90
18173;DHT22;9211;48.818;9.312;2022-12-18T08:18:05;-9.40;99.90
18173;DHT22;9211;48.818;9.312;2022-12-18T08:20:32;-9.40;99.90
18173;DHT22;9211;48.818;9.312;2022-12-18T08:22:59;-9.30;99.90
18173;DHT22;9211;48.818;9.312;2022-12-18T08:25:26;-9.20;99.90
18173;DHT22;9211;48.818;9.312;2022-12-18T08:27:53;-9.20;99.90
18173;DHT22;9211;48.818;9.312;2022-12-18T08:30:23;-9.10;99.90
18173;DHT22;9211;48.818;9.312;2022-12-18T08:32:51;-9.00;99.90
18173;DHT22;9211;48.818;9.312;2022-12-18T08:35:18;-8.90;99.90
18173;DHT22;9211;48.818;9.312;2022-12-18T08:37:45;-8.80;99.90
18173;DHT22;9211;48.818;9.312;2022-12-18T08:40:12;-8.70;99.90
18173;DHT22;9211;48.818;9.312;2022-12-18T08:42:39;-8.70;99.90
18173;DHT22;9211;48.818;9.312;2022-12-18T08:45:25;-8.60;99.90
18173;DHT22;9211;48.818;9.312;2022-12-18T08:47:52;-8.50;99.90
18173;DHT22;9211;48.818;9.312;2022-12-18T08:50:19;-8.40;99.90
18173;DHT22;9211;48.818;9.312;2022-12-18T08:52:46;-8.30;99.90
18173;DHT22;9211;48.818;9.312;2022-12-18T08:55:13;-8.30;99.90
18173;DHT22;9211;48.818;9.312;2022-12-18T08:57:40;-8.10;99.90
18173;DHT22;9211;48.818;9.312;2022-12-18T09:00:08;-8.00;99.90
18173;DHT22;9211;48.818;9.312;2022-12-18T09:02:37;-7.90;99.90
18173;DHT22;9211;48.818;9.312;2022-12-18T09:05:05;-7.80;99.90
18173;DHT22;9211;48.818;9.312;2022-12-18T09:07:32;-7.70;99.90
18173;DHT22;9211;48.818;9.312;2022-12-18T09:09:59;-7.60;99.90
18173;DHT22;9211;48.818;9.312;2022-12-18T09:12:26;-7.50;99.90
18173;DHT22;9211;48.818;9.312;2022-12-18T09:14:53;-7.50;99.90
18173;DHT22;9211;48.818;9.312;2022-12-18T09:17:20;-7.40;99.90
18173;DHT22;9211;48.818;9.312;2022-12-18T09:19:48;-7.30;99.90
18173;DHT22;9211;48.818;9.312;2022-12-18T09:22:15;-7.20;99.90
18173;DHT22;9211;48.818;9.312;2022-12-18T09:24:42;-7.10;99.90
18173;DHT22;9211;48.818;9.312;2022-12-18T09:27:09;-7.00;99.90
18173;DHT22;9211;48.818;9.312;2022-12-18T09:29:36;-6.80;99.90
18173;DHT22;9211;48.818;9.312;2022-12-18T09:32:04;-6.70;99.90
18173;DHT22;9211;48.818;9.312;2022-12-18T09:34:31;-6.70;99.90
18173;DHT22;9211;48.818;9.312;2022-12-18T09:36:59;-6.60;99.90
18173;DHT22;9211;48.818;9.312;2022-12-18T09:39:26;-6.50;99.90
18173;DHT22;9211;48.818;9.312;2022-12-18T09:41:55;-6.40;99.90
18173;DHT22;9211;48.818;9.312;2022-12-18T09:44:26;-6.30;99.90
18173;DHT22;9211;48.818;9.312;2022-12-18T09:47:14;-6.20;99.90
18173;DHT22;9211;48.818;9.312;2022-12-18T09:49:44;-6.20;99.90
18173;DHT22;9211;48.818;9.312;2022-12-18T09:52:17;-6.10;99.90
18173;DHT22;9211;48.818;9.312;2022-12-18T09:54:49;-6.10;99.90
18173;DHT22;9211;48.818;9.312;2022-12-18T09:57:19;-6.00;99.90
18173;DHT22;9211;48.818;9.312;2022-12-18T10:00:23;-5.90;99.90
18173;DHT22;9211;48.818;9.312;2022-12-18T10:02:52;-5.80;99.90
18173;DHT22;9211;48.818;9.312;2022-12-18T10:05:28;-5.70;99.90
18173;DHT22;9211;48.818;9.312;2022-12-18T10:08:04;-5.60;99.90
18173;DHT22;9211;48.818;9.312;2022-12-18T10:10:37;-5.50;99.90
18173;DHT22;9211;48.818;9.312;2022-12-18T10:13:16;-5.40;99.90
18173;DHT22;9211;48.818;9.312;2022-12-18T10:15:54;-5.30;99.90
18173;DHT22;9211;48.818;9.312;2022-12-18T10:18:32;-5.10;99.90
18173;DHT22;9211;48.818;9.312;2022-12-18T10:21:08;-5.00;99.90
18173;DHT22;9211;48.818;9.312;2022-12-18T10:23:45;-5.00;99.90
18173;DHT22;9211;48.818;9.312;2022-12-18T10:26:17;-4.90;99.90
18173;DHT22;9211;48.818;9.312;2022-12-18T10:28:45;-4.70;99.90
18173;DHT22;9211;48.818;9.312;2022-12-18T10:31:15;-4.70;99.90
18173;DHT22;9211;48.818;9.312;2022-12-18T10:33:43;-4.60;99.90
18173;DHT22;9211;48.818;9.312;2022-12-18T10:36:10;-4.50;99.90
18173;DHT22;9211;48.818;9.312;2022-12-18T10:38:39;-4.30;99.90
18173;DHT22;9211;48.818;9.312;2022-12-18T10:41:22;-4.20;99.90
18173;DHT22;9211;48.818;9.312;2022-12-18T10:44:11;-4.20;99.90
18173;DHT22;9211;48.818;9.312;2022-12-18T10:46:38;-4.10;99.90
18173;DHT22;9211;48.818;9.312;2022-12-18T10:49:17;-4.00;99.90
18173;DHT22;9211;48.818;9.312;2022-12-18T10:51:45;-3.90;99.90
18173;DHT22;9211;48.818;9.312;2022-12-18T10:54:16;-3.80;99.90
18173;DHT22;9211;48.818;9.312;2022-12-18T10:56:44;-3.70;99.90
18173;DHT22;9211;48.818;9.312;2022-12-18T10:59:13;-3.60;99.90
18173;DHT22;9211;48.818;9.312;2022-12-18T11:01:48;-3.60;99.90
18173;DHT22;9211;48.818;9.312;2022-12-18T11:04:18;-3.40;99.90
18173;DHT22;9211;48.818;9.312;2022-12-18T11:06:55;-3.30;99.90
18173;DHT22;9211;48.818;9.312;2022-12-18T11:09:25;-3.20;99.90
18173;DHT22;9211;48.818;9.312;2022-12-18T11:11:54;-3.10;99.90
18173;DHT22;9211;48.818;9.312;2022-12-18T11:14:24;-3.00;99.90
18173;DHT22;9211;48.818;9.312;2022-12-18T11:16:52;-2.90;99.90
18173;DHT22;9211;48.818;9.312;2022-12-18T11:19:23;-2.70;99.90
18173;DHT22;9211;48.818;9.312;2022-12-18T11:21:52;-2.60;99.90
18173;DHT22;9211;48.818;9.312;2022-12-18T11:24:24;-2.60;99.90
18173;DHT22;9211;48.818;9.312;2022-12-18T11:26:53;-2.50;99.90
18173;DHT22;9211;48.818;9.312;2022-12-18T11:29:24;-2.40;99.90
18173;DHT22;9211;48.818;9.312;2022-12-18T11:34:59;-2.30;99.90
18173;DHT22;9211;48.818;9.312;2022-12-18T11:37:28;-2.20;99.90
18173;DHT22;9211;48.818;9.312;2022-12-18T11:40:01;-2.20;99.90
18173;DHT22;9211;48.818;9.312;2022-12-18T11:42:35;-2.10;99.90
18173;DHT22;9211;48.818;9.312;2022-12-18T11:45:21;-2.00;99.90
18173;DHT22;9211;48.818;9.312;2022-12-18T11:47:54;-2.00;99.90
18173;DHT22;9211;48.818;9.312;2022-12-18T11:50:25;-1.90;99.90
18173;DHT22;9211;48.818;9.312;2022-12-18T11:52:52;-1.80;99.90
18173;DHT22;9211;48.818;9.312;2022-12-18T11:55:33;-1.80;99.90
18173;DHT22;9211;48.818;9.312;2022-12-18T11:58:07;-1.70;99.90
18173;DHT22;9211;48.818;9.312;2022-12-18T12:00:40;-1.70;99.90
18173;DHT22;9211;48.818;9.312;2022-12-18T12:03:24;-1.70;99.90
18173;DHT22;9211;48.818;9.312;2022-12-18T12:06:06;-1.60;99.90
18173;DHT22;9211;48.818;9.312;2022-12-18T12:08:47;-1.60;99.90
18173;DHT22;9211;48.818;9.312;2022-12-18T12:11:23;-1.60;99.90
18173;DHT22;9211;48.818;9.312;2022-12-18T12:14:07;-1.60;99.90
18173;DHT22;9211;48.818;9.312;2022-12-18T12:16:43;-1.60;99.90
18173;DHT22;9211;48.818;9.312;2022-12-18T12:19:23;-1.50;99.90
18173;DHT22;9211;48.818;9.312;2022-12-18T12:22:00;-1.50;99.90
18173;DHT22;9211;48.818;9.312;2022-12-18T12:24:37;-1.40;99.90
18173;DHT22;9211;48.818;9.312;2022-12-18T12:27:16;-1.40;99.90
18173;DHT22;9211;48.818;9.312;2022-12-18T12:29:54;-1.40;99.90
18173;DHT22;9211;48.818;9.312;2022-12-18T12:32:36;-1.30;99.90
18173;DHT22;9211;48.818;9.312;2022-12-18T12:35:13;-1.20;99.90
18173;DHT22;9211;48.818;9.312;2022-12-18T12:37:47;-1.20;99.90
18173;DHT22;9211;48.818;9.312;2022-12-18T12:40:18;-1.10;99.90
18173;DHT22;9211;48.818;9.312;2022-12-18T12:42:52;-1.10;99.90
18173;DHT22;9211;48.818;9.312;2022-12-18T12:45:42;-1.00;99.90
18173;DHT22;9211;48.818;9.312;2022-12-18T12:48:17;-1.00;99.90
18173;DHT22;9211;48.818;9.312;2022-12-18T12:50:46;-0.90;99.90
18173;DHT22;9211;48.818;9.312;2022-12-18T12:53:21;-1.00;99.90
18173;DHT22;9211;48.818;9.312;2022-12-18T12:55:50;-0.90;99.90
18173;DHT22;9211;48.818;9.312;2022-12-18T12:58:29;-0.90;99.90
18173;DHT22;9211;48.818;9.312;2022-12-18T13:01:08;-0.90;99.90
18173;DHT22;9211;48.818;9.312;2022-12-18T13:03:44;-0.80;99.90
18173;DHT22;9211;48.818;9.312;2022-12-18T13:06:18;-0.80;99.90
18173;DHT22;9211;48.818;9.312;2022-12-18T13:08:59;-0.80;99.90
18173;DHT22;9211;48.818;9.312;2022-12-18T13:11:31;-0.80;99.90
18173;DHT22;9211;48.818;9.312;2022-12-18T13:14:27;-0.80;99.90
18173;DHT22;9211;48.818;9.312;2022-12-18T13:20:11;-0.80;99.90
18173;DHT22;9211;48.818;9.312;2022-12-18T13:22:42;-0.70;99.90
18173;DHT22;9211;48.818;9.312;2022-12-18T13:25:33;-0.70;99.90
18173;DHT22;9211;48.818;9.312;2022-12-18T13:28:09;-0.70;99.90
18173;DHT22;9211;48.818;9.312;2022-12-18T13:30:55;-0.70;99.90
18173;DHT22;9211;48.818;9.312;2022-12-18T13:33:49;-0.70;99.90
18173;DHT22;9211;48.818;9.312;2022-12-18T13:36:32;-0.70;99.90
18173;DHT22;9211;48.818;9.312;2022-12-18T13:41:54;-0.60;99.90
18173;DHT22;9211;48.818;9.312;2022-12-18T13:45:01;-0.60;99.90
18173;DHT22;9211;48.818;9.312;2022-12-18T13:47:32;-0.50;99.90
18173;DHT22;9211;48.818;9.312;2022-12-18T13:50:00;-0.50;99.90
18173;DHT22;9211;48.818;9.312;2022-12-18T13:52:33;-0.50;99.90
18173;DHT22;9211;48.818;9.312;2022-12-18T13:55:05;-0.40;99.90
18173;DHT22;9211;48.818;9.312;2022-12-18T13:57:35;-0.50;99.90
18173;DHT22;9211;48.818;9.312;2022-12-18T14:00:23;-0.50;99.90
18173;DHT22;9211;48.818;9.312;2022-12-18T14:02:52;-0.50;99.90
18173;DHT22;9211;48.818;9.312;2022-12-18T14:05:22;-0.50;99.90
18173;DHT22;9211;48.818;9.312;2022-12-18T14:07:49;-0.50;99.90
18173;DHT22;9211;48.818;9.312;2022-12-18T14:10:16;-0.60;99.90
18173;DHT22;9211;48.818;9.312;2022-12-18T14:12:47;-0.60;99.90
18173;DHT22;9211;48.818;9.312;2022-12-18T14:15:30;-0.60;99.90
18173;DHT22;9211;48.818;9.312;2022-12-18T14:18:01;-0.60;99.90
18173;DHT22;9211;48.818;9.312;2022-12-18T14:20:32;-0.60;99.90
18173;DHT22;9211;48.818;9.312;2022-12-18T14:22:59;-0.60;99.90
18173;DHT22;9211;48.818;9.312;2022-12-18T14:25:28;-0.70;99.90
18173;DHT22;9211;48.818;9.312;2022-12-18T14:28:07;-0.70;99.90
18173;DHT22;9211;48.818;9.312;2022-12-18T14:30:40;-0.80;99.90
18173;DHT22;9211;48.818;9.312;2022-12-18T14:33:11;-0.80;99.90
18173;DHT22;9211;48.818;9.312;2022-12-18T14:35:41;-0.80;99.90
18173;DHT22;9211;48.818;9.312;2022-12-18T14:38:22;-0.90;99.90
18173;DHT22;9211;48.818;9.312;2022-12-18T14:40:52;-0.90;99.90
18173;DHT22;9211;48.818;9.312;2022-12-18T14:43:20;-1.00;99.90
18173;DHT22;9211;48.818;9.312;2022-12-18T14:45:48;-1.00;99.90
18173;DHT22;9211;48.818;9.312;2022-12-18T14:48:18;-1.00;99.90
18173;DHT22;9211;48.818;9.312;2022-12-18T14:50:55;-1.10;99.90
18173;DHT22;9211;48.818;9.312;2022-12-18T14:53:25;-1.20;99.90
18173;DHT22;9211;48.818;9.312;2022-12-18T14:55:53;-1.20;99.90
18173;DHT22;9211;48.818;9.312;2022-12-18T14:58:21;-1.30;99.90
18173;DHT22;9211;48.818;9.312;2022-12-18T15:00:49;-1.40;99.90
18173;DHT22;9211;48.818;9.312;2022-12-18T15:03:20;-1.40;99.90
18173;DHT22;9211;48.818;9.312;2022-12-18T15:05:47;-1.40;99.90
18173;DHT22;9211;48.818;9.312;2022-12-18T15:08:28;-1.50;99.90
18173;DHT22;9211;48.818;9.312;2022-12-18T15:10:55;-1.50;99.90
18173;DHT22;9211;48.818;9.312;2022-12-18T15:13:24;-1.60;99.90
18173;DHT22;9211;48.818;9.312;2022-12-18T15:15:52;-1.60;99.90
18173;DHT22;9211;48.818;9.312;2022-12-18T15:18:26;-1.70;99.90
18173;DHT22;9211;48.818;9.312;2022-12-18T15:20:56;-1.70;99.90
18173;DHT22;9211;48.818;9.312;2022-12-18T15:23:27;-1.80;99.90
18173;DHT22;9211;48.818;9.312;2022-12-18T15:25:56;-1.80;99.90
18173;DHT22;9211;48.818;9.312;2022-12-18T15:28:25;-1.90;99.90
18173;DHT22;9211;48.818;9.312;2022-12-18T15:31:01;-2.00;99.90
18173;DHT22;9211;48.818;9.312;2022-12-18T15:33:33;-1.90;99.90
18173;DHT22;9211;48.818;9.312;2022-12-18T15:36:02;-2.00;99.90
18173;DHT22;9211;48.818;9.312;2022-12-18T15:38:30;-2.00;99.90
18173;DHT22;9211;48.818;9.312;2022-12-18T15:40:57;-2.10;99.90
18173;DHT22;9211;48.818;9.312;2022-12-18T15:43:25;-2.10;99.90
18173;DHT22;9211;48.818;9.312;2022-12-18T15:46:04;-2.10;99.90
18173;DHT22;9211;48.818;9.312;2022-12-18T15:48:39;-2.20;99.90
18173;DHT22;9211;48.818;9.312;2022-12-18T15:51:13;-2.20;99.90
18173;DHT22;9211;48.818;9.312;2022-12-18T15:53:41;-2.20;99.90
18173;DHT22;9211;48.818;9.312;2022-12-18T15:56:12;-2.40;99.90
18173;DHT22;9211;48.818;9.312;2022-12-18T15:58:56;-2.30;99.90
18173;DHT22;9211;48.818;9.312;2022-12-18T16:01:26;-2.30;99.90
18173;DHT22;9211;48.818;9.312;2022-12-18T16:03:54;-2.40;99.90
18173;DHT22;9211;48.818;9.312;2022-12-18T16:06:22;-2.40;99.90
18173;DHT22;9211;48.818;9.312;2022-12-18T16:08:49;-2.40;99.90
18173;DHT22;9211;48.818;9.312;2022-12-18T16:11:22;-2.40;99.90
18173;DHT22;9211;48.818;9.312;2022-12-18T16:14:10;-2.50;99.90
18173;DHT22;9211;48.818;9.312;2022-12-18T16:16:39;-2.50;99.90
18173;DHT22;9211;48.818;9.312;2022-12-18T16:19:08;-2.50;99.90